Mandarin Grace — 9V8352 — position and weather

sailwx.info

Track history (hours):
 
Tides and Currents Weather Stations Pressure Air Temp Water Temp Dewpoint Dewpoint Depression Visibility Wind Speed Wind Dir Waves Ship Positions

Mandarin Grace

Last reported at 2015-Jun-13 04:33 UTC. Time now 2015-Jul-01 12:02 UTC.
Position N 01°15' E 104°06'.
Warning: this ship's position is 18 days out of date.

Length 190 m; draft 6.8 m.

Type: Cargo ship. MMSI: 563862000.

Date/timePositionNaut miles runAvg speedWind from/ knotsBaromVisibWave heightAir tempDewpointWater temp
2015-Jun-13 04:33N 01°15' E 104°06'1713.8
2015-Jun-13 03:20N 01°10' E 103°49'15 7.7
2015-Jun-13 01:25N 01°11' E 103°35'4 5.0
2015-Jun-13 00:33N 01°13' E 103°38'0 0.0
2015-Jun-12 22:30N 01°13' E 103°38'0 0.0
2015-Jun-12 19:30N 01°13' E 103°38'0 0.0
2015-Jun-12 16:12N 01°13' E 103°38'0 0.0
2015-Jun-12 15:27N 01°13' E 103°38'0 0.1
2015-Jun-12 14:30N 01°13' E 103°38'0 0.0
2015-Jun-12 10:21N 01°13' E 103°38'0 0.0
2015-Jun-12 02:33N 01°13' E 103°38'0 0.1
2015-Jun-12 00:09N 01°13' E 103°38'0 0.0
2015-Jun-11 21:30N 01°13' E 103°38'0 0.0
2015-Jun-11 17:09N 01°13' E 103°38'0 0.0
2015-Jun-11 16:30N 01°13' E 103°38'0 0.1
2015-Jun-11 15:03N 01°13' E 103°38'0 0.0
2015-Jun-11 14:15N 01°13' E 103°38'0 0.0
2015-Jun-11 09:21N 01°13' E 103°38'0 0.2
2015-Jun-11 08:15N 01°13' E 103°38'0 0.0
2015-Jun-10 18:15N 01°13' E 103°38'0 0.0
2015-Jun-10 14:30N 01°13' E 103°38'0 0.0
2015-Jun-10 13:09N 01°13' E 103°38'0 0.0
2015-Jun-10 12:09N 01°13' E 103°38'0 0.0
2015-Jun-10 11:06N 01°13' E 103°38'0 0.1
2015-Jun-10 10:15N 01°13' E 103°38'0 0.0
2015-Jun-10 02:06N 01°13' E 103°38'0 0.0
2015-Jun-10 01:33N 01°13' E 103°38'7 0.3
2015-Jun-09 02:31N 01°16' E 103°45'6 6.0
2015-Jun-09 01:33N 01°13' E 103°49'0 0.0
2015-Jun-09 00:24N 01°13' E 103°49'0 0.0
2015-Jun-08 23:24N 01°13' E 103°49'0 0.0
2015-Jun-08 22:21N 01°13' E 103°49'0 0.0
2015-Jun-08 21:21N 01°13' E 103°49'0 0.1
2015-Jun-08 20:27N 01°13' E 103°49'0 0.1
2015-Jun-08 19:33N 01°13' E 103°49'0 0.1
2015-Jun-08 18:27N 01°13' E 103°49'0 0.1
2015-Jun-08 17:27N 01°13' E 103°49'0 0.1
2015-Jun-08 16:15N 01°13' E 103°49'0 0.0
2015-Jun-08 13:27N 01°13' E 103°49'0 0.1
2015-Jun-08 12:33N 01°13' E 103°49'0 0.0
2015-Jun-08 10:15N 01°13' E 103°49'0 0.1
2015-Jun-08 09:33N 01°13' E 103°49'2 2.3
2015-Jun-08 08:32N 01°11' E 103°48'12 0.9
2015-Jun-07 19:28N 01°13' E 103°36'15 7.6
2015-Jun-07 17:33N 01°12' E 103°51'1212.2
2015-Jun-07 16:33N 01°16' E 104°02'1312.8
2015-Jun-07 15:32N 01°18' E 104°15'  
Track history (hours):
 
Tides and Currents Weather Stations Pressure Air Temp Water Temp Dewpoint Dewpoint Depression Visibility Wind Speed Wind Dir Waves Ship Positions

Mandarin Grace

Last reported at 2015-Jun-13 04:33 UTC. Time now 2015-Jul-01 12:02 UTC.
Position N 01°15' E 104°06'.
Warning: this ship's position is 18 days out of date.

Length 190 m; draft 6.8 m.

Type: Cargo ship. MMSI: 563862000.

Date/timePositionNaut miles runAvg speedWind from/ knotsBaromVisibWave heightAir tempDewpointWater temp
2015-Jun-13 04:33N 01°15' E 104°06'1713.8
2015-Jun-13 03:20N 01°10' E 103°49'15 7.7
2015-Jun-13 01:25N 01°11' E 103°35'4 5.0
2015-Jun-13 00:33N 01°13' E 103°38'0 0.0
2015-Jun-12 22:30N 01°13' E 103°38'0 0.0
2015-Jun-12 19:30N 01°13' E 103°38'0 0.0
2015-Jun-12 16:12N 01°13' E 103°38'0 0.0
2015-Jun-12 15:27N 01°13' E 103°38'0 0.1
2015-Jun-12 14:30N 01°13' E 103°38'0 0.0
2015-Jun-12 10:21N 01°13' E 103°38'0 0.0
2015-Jun-12 02:33N 01°13' E 103°38'0 0.1
2015-Jun-12 00:09N 01°13' E 103°38'0 0.0
2015-Jun-11 21:30N 01°13' E 103°38'0 0.0
2015-Jun-11 17:09N 01°13' E 103°38'0 0.0
2015-Jun-11 16:30N 01°13' E 103°38'0 0.1
2015-Jun-11 15:03N 01°13' E 103°38'0 0.0
2015-Jun-11 14:15N 01°13' E 103°38'0 0.0
2015-Jun-11 09:21N 01°13' E 103°38'0 0.2
2015-Jun-11 08:15N 01°13' E 103°38'0 0.0
2015-Jun-10 18:15N 01°13' E 103°38'0 0.0
2015-Jun-10 14:30N 01°13' E 103°38'0 0.0
2015-Jun-10 13:09N 01°13' E 103°38'0 0.0
2015-Jun-10 12:09N 01°13' E 103°38'0 0.0
2015-Jun-10 11:06N 01°13' E 103°38'0 0.1
2015-Jun-10 10:15N 01°13' E 103°38'0 0.0
2015-Jun-10 02:06N 01°13' E 103°38'0 0.0
2015-Jun-10 01:33N 01°13' E 103°38'7 0.3
2015-Jun-09 02:31N 01°16' E 103°45'6 6.0
2015-Jun-09 01:33N 01°13' E 103°49'0 0.0
2015-Jun-09 00:24N 01°13' E 103°49'0 0.0
2015-Jun-08 23:24N 01°13' E 103°49'0 0.0
2015-Jun-08 22:21N 01°13' E 103°49'0 0.0
2015-Jun-08 21:21N 01°13' E 103°49'0 0.1
2015-Jun-08 20:27N 01°13' E 103°49'0 0.1
2015-Jun-08 19:33N 01°13' E 103°49'0 0.1
2015-Jun-08 18:27N 01°13' E 103°49'0 0.1
2015-Jun-08 17:27N 01°13' E 103°49'0 0.1
2015-Jun-08 16:15N 01°13' E 103°49'0 0.0
2015-Jun-08 13:27N 01°13' E 103°49'0 0.1
2015-Jun-08 12:33N 01°13' E 103°49'0 0.0
2015-Jun-08 10:15N 01°13' E 103°49'0 0.1
2015-Jun-08 09:33N 01°13' E 103°49'2 2.3
2015-Jun-08 08:32N 01°11' E 103°48'12 0.9
2015-Jun-07 19:28N 01°13' E 103°36'15 7.6
2015-Jun-07 17:33N 01°12' E 103°51'1212.2
2015-Jun-07 16:33N 01°16' E 104°02'1312.8
2015-Jun-07 15:32N 01°18' E 104°15'  

Dump ship's entire track history